createdAt,value
2018-12-04T00:00:48.065Z,992.92
2018-12-04T00:01:48.051Z,992.97
2018-12-04T00:02:48.037Z,992.99
2018-12-04T00:03:48.039Z,993.02
2018-12-04T00:04:48.013Z,993.04
2018-12-04T00:05:48.001Z,993.02
2018-12-04T00:06:47.997Z,993.10
2018-12-04T00:07:47.977Z,993.06
2018-12-04T00:08:47.966Z,993.14
2018-12-04T00:09:47.974Z,993.16
2018-12-04T00:10:47.941Z,993.19
2018-12-04T00:11:47.938Z,993.28
2018-12-04T00:12:47.930Z,993.38
2018-12-04T00:13:47.913Z,993.36
2018-12-04T00:14:47.918Z,993.42
2018-12-04T00:15:47.894Z,993.61
2018-12-04T00:16:47.881Z,993.61
2018-12-04T00:17:47.869Z,993.62
2018-12-04T00:18:47.861Z,993.65
2018-12-04T00:19:47.862Z,993.72
2018-12-04T00:20:47.838Z,993.77
2018-12-04T00:21:47.838Z,993.77
2018-12-04T00:22:47.854Z,993.78
2018-12-04T00:23:47.809Z,993.79
2018-12-04T00:24:47.807Z,993.82
2018-12-04T00:25:47.790Z,993.81
2018-12-04T00:26:47.770Z,993.85
2018-12-04T00:27:47.757Z,993.81
2018-12-04T00:28:47.753Z,993.82
2018-12-04T00:29:47.734Z,993.83
2018-12-04T00:30:47.746Z,993.82
2018-12-04T00:31:47.713Z,993.79
2018-12-04T00:32:47.706Z,993.91
2018-12-04T00:33:47.694Z,993.95
2018-12-04T00:34:47.681Z,994.02
2018-12-04T00:35:47.673Z,994.04
2018-12-04T00:36:47.673Z,994.09
2018-12-04T00:37:47.650Z,994.10
2018-12-04T00:38:47.641Z,994.17
2018-12-04T00:39:47.628Z,994.19
2018-12-04T00:40:47.621Z,994.23
2018-12-04T00:41:47.605Z,994.30
2018-12-04T00:42:47.618Z,994.28
2018-12-04T00:43:47.581Z,994.34
2018-12-04T00:44:47.565Z,994.38
2018-12-04T00:45:47.561Z,994.45
2018-12-04T00:46:47.549Z,994.47
2018-12-04T00:47:47.557Z,994.53
2018-12-04T00:48:47.523Z,994.55
2018-12-04T00:49:47.512Z,994.56
2018-12-04T00:50:47.501Z,994.59
2018-12-04T00:51:47.497Z,994.65
2018-12-04T00:52:47.497Z,994.62
2018-12-04T00:53:47.466Z,994.69
2018-12-04T00:54:47.456Z,994.63
2018-12-04T00:55:47.448Z,994.67
2018-12-04T00:56:47.436Z,994.69
2018-12-04T00:57:47.429Z,994.75
2018-12-04T00:58:47.428Z,994.69
2018-12-04T00:59:47.400Z,994.73
2018-12-04T01:00:47.388Z,994.80
2018-12-04T01:01:47.380Z,994.79
2018-12-04T01:02:47.372Z,994.76
2018-12-04T01:03:47.356Z,994.83
2018-12-04T01:04:47.363Z,994.86
2018-12-04T01:05:47.332Z,994.88
2018-12-04T01:06:47.321Z,994.93
2018-12-04T01:07:47.308Z,994.96
2018-12-04T01:08:47.297Z,995.06
2018-12-04T01:09:47.308Z,995.01
2018-12-04T01:10:47.281Z,995.06
2018-12-04T01:11:47.272Z,995.12
2018-12-04T01:12:47.313Z,995.14
2018-12-04T01:13:47.245Z,995.12
2018-12-04T01:14:47.236Z,995.20
2018-12-04T01:15:47.244Z,995.27
2018-12-04T01:16:47.214Z,995.32
2018-12-04T01:17:47.200Z,995.35
2018-12-04T01:18:47.197Z,995.40
2018-12-04T01:19:47.179Z,995.48
2018-12-04T01:20:47.173Z,995.45
2018-12-04T01:21:47.169Z,995.53
2018-12-04T01:22:47.145Z,995.55
2018-12-04T01:23:47.133Z,995.57
2018-12-04T01:24:47.129Z,995.60
2018-12-04T01:25:47.116Z,995.61
2018-12-04T01:26:47.104Z,995.65
2018-12-04T01:27:47.108Z,995.67
2018-12-04T01:28:47.084Z,995.67
2018-12-04T01:29:47.064Z,995.73
2018-12-04T01:30:47.056Z,995.71
2018-12-04T01:31:47.040Z,995.76
2018-12-04T01:32:47.032Z,995.75
2018-12-04T01:33:47.060Z,995.84
2018-12-04T01:34:47.011Z,995.86
2018-12-04T01:35:46.996Z,995.89
2018-12-04T01:36:46.989Z,995.91
2018-12-04T01:37:46.977Z,995.89
2018-12-04T01:38:46.968Z,995.96
2018-12-04T01:39:46.976Z,996.00
2018-12-04T01:40:46.944Z,996.00
2018-12-04T01:41:46.930Z,996.07
2018-12-04T01:42:46.916Z,996.13
2018-12-04T01:43:46.905Z,996.23
2018-12-04T01:44:46.901Z,996.26
2018-12-04T01:45:46.906Z,996.30
2018-12-04T01:46:46.886Z,996.33
2018-12-04T01:47:46.865Z,996.47
2018-12-04T01:48:46.848Z,996.46
2018-12-04T01:49:46.840Z,996.46
2018-12-04T01:50:46.857Z,996.47
2018-12-04T01:51:46.816Z,996.58
2018-12-04T01:52:46.809Z,996.60
2018-12-04T01:53:46.792Z,996.56
2018-12-04T01:54:46.784Z,996.58
2018-12-04T01:55:46.779Z,996.58
2018-12-04T01:56:46.784Z,996.63
2018-12-04T01:57:46.752Z,996.63
2018-12-04T01:58:46.752Z,996.63
2018-12-04T01:59:46.733Z,996.61
2018-12-04T02:00:46.716Z,996.69
2018-12-04T02:01:46.704Z,996.67
2018-12-04T02:02:46.710Z,996.74
2018-12-04T02:03:47.093Z,996.73
2018-12-04T02:04:46.696Z,996.84
2018-12-04T02:05:46.664Z,996.82
2018-12-04T02:06:46.649Z,996.89
2018-12-04T02:07:46.640Z,996.87
2018-12-04T02:08:46.632Z,996.91
2018-12-04T02:09:46.632Z,996.94
2018-12-04T02:10:46.616Z,997.01
2018-12-04T02:11:46.596Z,997.00
2018-12-04T02:12:46.588Z,997.01
2018-12-04T02:13:46.576Z,997.03
2018-12-04T02:14:46.564Z,997.02
2018-12-04T02:15:46.568Z,996.98
2018-12-04T02:16:46.540Z,996.99
2018-12-04T02:17:46.532Z,997.02
2018-12-04T02:18:46.524Z,997.09
2018-12-04T02:19:46.512Z,997.03
2018-12-04T02:20:46.511Z,997.09
2018-12-04T02:21:46.497Z,997.15
2018-12-04T02:22:46.472Z,997.13
2018-12-04T02:23:46.461Z,997.21
2018-12-04T02:24:46.462Z,997.19
2018-12-04T02:25:46.439Z,997.17
2018-12-04T02:26:46.454Z,997.22
2018-12-04T02:27:46.420Z,997.22
2018-12-04T02:28:46.403Z,997.26
2018-12-04T02:29:46.400Z,997.31
2018-12-04T02:30:46.380Z,997.34
2018-12-04T02:31:46.376Z,997.38
2018-12-04T02:32:46.387Z,997.39
2018-12-04T02:33:46.356Z,997.42
2018-12-04T02:34:46.342Z,997.46
2018-12-04T02:35:46.341Z,997.43
2018-12-04T02:36:46.312Z,997.45
2018-12-04T02:37:46.304Z,997.53
2018-12-04T02:38:46.308Z,997.51
2018-12-04T02:39:46.285Z,997.49
2018-12-04T02:40:46.277Z,997.53
2018-12-04T02:41:46.267Z,997.49
2018-12-04T02:42:46.251Z,997.52
2018-12-04T02:43:46.264Z,997.51
2018-12-04T02:44:46.229Z,997.52
2018-12-04T02:45:46.220Z,997.53
2018-12-04T02:46:46.205Z,997.60
2018-12-04T02:47:46.197Z,997.57
2018-12-04T02:48:46.208Z,997.67
2018-12-04T02:49:46.196Z,997.69
2018-12-04T02:50:46.160Z,997.74
2018-12-04T02:51:46.155Z,997.78
2018-12-04T02:52:46.140Z,997.77
2018-12-04T02:53:46.128Z,997.78
2018-12-04T02:54:46.116Z,997.83
2018-12-04T02:55:46.139Z,997.87
2018-12-04T02:56:46.099Z,997.88
2018-12-04T02:57:46.081Z,997.95
2018-12-04T02:58:46.073Z,998.04
2018-12-04T02:59:46.056Z,998.02
2018-12-04T03:00:46.060Z,998.05
2018-12-04T03:01:46.051Z,998.06
2018-12-04T03:02:46.033Z,998.06
2018-12-04T03:03:46.012Z,998.09
2018-12-04T03:04:46.005Z,998.14
2018-12-04T03:05:45.995Z,998.19
2018-12-04T03:06:46.000Z,998.22
2018-12-04T03:07:45.972Z,998.15
2018-12-04T03:08:45.968Z,998.17
2018-12-04T03:09:45.956Z,998.16
2018-12-04T03:10:45.940Z,998.23
2018-12-04T03:11:45.925Z,998.25
2018-12-04T03:12:45.944Z,998.20
2018-12-04T03:13:45.904Z,998.26
2018-12-04T03:14:45.902Z,998.28
2018-12-04T03:15:45.893Z,998.27
2018-12-04T03:16:45.872Z,998.35
2018-12-04T03:17:45.860Z,998.30
2018-12-04T03:18:45.869Z,998.36
2018-12-04T03:19:45.837Z,998.31
2018-12-04T03:20:45.824Z,998.36
2018-12-04T03:21:45.820Z,998.30
2018-12-04T03:22:45.805Z,998.33
2018-12-04T03:23:45.796Z,998.38
2018-12-04T03:24:45.800Z,998.36
2018-12-04T03:25:45.773Z,998.44
2018-12-04T03:26:45.758Z,998.45
2018-12-04T03:27:45.748Z,998.47
2018-12-04T03:28:45.743Z,998.49
2018-12-04T03:29:45.740Z,998.51
2018-12-04T03:30:45.713Z,998.56
2018-12-04T03:31:45.721Z,998.60
2018-12-04T03:32:45.689Z,998.63
2018-12-04T03:33:45.699Z,998.55
2018-12-04T03:34:45.668Z,998.60
2018-12-04T03:35:45.677Z,998.65
2018-12-04T03:36:45.645Z,998.62
2018-12-04T03:37:45.637Z,998.64
2018-12-04T03:38:45.629Z,998.71
2018-12-04T03:39:45.616Z,998.72
2018-12-04T03:40:45.607Z,998.74
2018-12-04T03:41:45.663Z,998.74
2018-12-04T03:42:45.585Z,998.73
2018-12-04T03:43:45.568Z,998.74
2018-12-04T03:44:45.556Z,998.78
2018-12-04T03:45:45.544Z,998.85
2018-12-04T03:46:45.557Z,998.83
2018-12-04T03:47:45.533Z,998.87
2018-12-04T03:48:45.516Z,998.89
2018-12-04T03:49:45.504Z,998.86
2018-12-04T03:50:45.488Z,999.01
2018-12-04T03:51:45.476Z,999.03
2018-12-04T03:52:45.489Z,999.02
2018-12-04T03:53:45.460Z,999.06
2018-12-04T03:54:45.449Z,999.08
2018-12-04T03:55:45.436Z,999.11
2018-12-04T03:56:45.428Z,999.10
2018-12-04T03:57:45.444Z,999.13
2018-12-04T03:58:45.412Z,999.11
2018-12-04T03:59:45.392Z,999.13
2018-12-04T04:00:45.376Z,999.18
2018-12-04T04:01:45.380Z,999.16
2018-12-04T04:02:45.361Z,999.21
2018-12-04T04:03:45.361Z,999.23
2018-12-04T04:04:45.337Z,999.26
2018-12-04T04:05:45.328Z,999.25
2018-12-04T04:06:45.317Z,999.22
2018-12-04T04:07:45.307Z,999.28
2018-12-04T04:08:45.301Z,999.29
2018-12-04T04:09:45.294Z,999.28
2018-12-04T04:10:45.266Z,999.29
2018-12-04T04:11:45.259Z,999.29
2018-12-04T04:12:45.249Z,999.30
2018-12-04T04:13:45.245Z,999.26
2018-12-04T04:14:45.241Z,999.35
2018-12-04T04:15:45.216Z,999.32
2018-12-04T04:16:45.205Z,999.39
2018-12-04T04:17:45.192Z,999.35
2018-12-04T04:18:45.178Z,999.30
2018-12-04T04:19:45.173Z,999.35
2018-12-04T04:20:45.182Z,999.36
2018-12-04T04:21:45.148Z,999.39
2018-12-04T04:22:45.136Z,999.42
2018-12-04T04:23:45.125Z,999.43
2018-12-04T04:24:45.113Z,999.45
2018-12-04T04:25:45.109Z,999.47
2018-12-04T04:26:45.116Z,999.47
2018-12-04T04:27:45.077Z,999.55
2018-12-04T04:28:45.071Z,999.57
2018-12-04T04:29:45.056Z,999.61
2018-12-04T04:30:45.046Z,999.62
2018-12-04T04:31:45.040Z,999.66
2018-12-04T04:32:45.049Z,999.71
2018-12-04T04:33:45.012Z,999.71
2018-12-04T04:34:45.025Z,999.68
2018-12-04T04:35:44.993Z,999.78
2018-12-04T04:36:44.977Z,999.84
2018-12-04T04:37:44.969Z,999.84
2018-12-04T04:38:44.960Z,999.87
2018-12-04T04:39:44.941Z,999.91
2018-12-04T04:40:44.957Z,999.90
2018-12-04T04:41:44.924Z,999.93
2018-12-04T04:42:44.915Z,999.90
2018-12-04T04:43:44.904Z,999.98
2018-12-04T04:44:44.886Z,1000.00
2018-12-04T04:45:44.883Z,1000.01
2018-12-04T04:46:44.892Z,1000.08
2018-12-04T04:47:44.854Z,1000.01
2018-12-04T04:48:44.849Z,1000.07
2018-12-04T04:49:44.837Z,1000.16
2018-12-04T04:50:44.825Z,1000.09
2018-12-04T04:51:51.853Z,1000.19
2018-12-04T04:52:44.801Z,1000.20
2018-12-04T04:53:44.785Z,1000.24
2018-12-04T04:54:44.778Z,1000.28
2018-12-04T04:55:44.770Z,1000.27
2018-12-04T04:56:44.756Z,1000.26
2018-12-04T04:57:44.765Z,1000.24
2018-12-04T04:58:44.729Z,1000.24
2018-12-04T04:59:44.726Z,1000.24
2018-12-04T05:00:44.715Z,1000.23
2018-12-04T05:01:44.699Z,1000.27
2018-12-04T05:02:44.705Z,1000.26
2018-12-04T05:03:44.692Z,1000.23
2018-12-04T05:04:44.685Z,1000.31
2018-12-04T05:05:44.651Z,1000.36
2018-12-04T05:06:44.648Z,1000.35
2018-12-04T05:07:44.636Z,1000.37
2018-12-04T05:08:44.624Z,1000.38
2018-12-04T05:09:44.609Z,1000.39
2018-12-04T05:10:44.633Z,1000.43
2018-12-04T05:11:44.589Z,1000.40
2018-12-04T05:12:44.588Z,1000.43
2018-12-04T05:13:44.569Z,1000.38
2018-12-04T05:14:44.552Z,1000.43
2018-12-04T05:15:44.543Z,1000.41
2018-12-04T05:16:44.555Z,1000.46
2018-12-04T05:17:44.520Z,1000.48
2018-12-04T05:18:44.517Z,1000.56
2018-12-04T05:19:44.500Z,1000.49
2018-12-04T05:20:44.488Z,1000.57
2018-12-04T05:21:44.476Z,1000.65
2018-12-04T05:22:44.475Z,1000.65
2018-12-04T05:23:44.470Z,1000.66
2018-12-04T05:24:44.441Z,1000.70
2018-12-04T05:25:44.432Z,1000.62
2018-12-04T05:26:44.451Z,1000.65
2018-12-04T05:27:44.411Z,1000.71
2018-12-04T05:28:44.395Z,1000.77
2018-12-04T05:29:44.393Z,1000.78
2018-12-04T05:30:44.379Z,1000.82
2018-12-04T05:31:44.367Z,1000.80
2018-12-04T05:32:44.384Z,1000.86
2018-12-04T05:33:44.342Z,1000.85
2018-12-04T05:34:44.335Z,1000.85
2018-12-04T05:35:44.324Z,1000.92
2018-12-04T05:36:44.312Z,1000.91
2018-12-04T05:37:44.303Z,1000.95
2018-12-04T05:38:44.416Z,1000.95
2018-12-04T05:39:44.278Z,1000.97
2018-12-04T05:40:44.291Z,1001.04
2018-12-04T05:41:44.251Z,1000.97
2018-12-04T05:42:44.520Z,1001.08
2018-12-04T05:43:44.231Z,1001.11
2018-12-04T05:44:44.222Z,1001.13
2018-12-04T05:45:44.222Z,1001.13
2018-12-04T05:46:44.215Z,1001.15
2018-12-04T05:47:44.187Z,1001.16
2018-12-04T05:48:44.176Z,1001.18
2018-12-04T05:49:44.163Z,1001.19
2018-12-04T05:50:44.157Z,1001.24
2018-12-04T05:51:44.150Z,1001.23
2018-12-04T05:52:53.674Z,1001.26
2018-12-04T05:53:44.138Z,1001.26
2018-12-04T05:54:44.109Z,1001.27
2018-12-04T05:55:44.098Z,1001.31
2018-12-04T05:56:44.092Z,1001.32
2018-12-04T05:57:51.213Z,1001.37
2018-12-04T05:58:44.061Z,1001.40
2018-12-04T05:59:44.081Z,1001.41
2018-12-04T06:00:44.048Z,1001.46
2018-12-04T06:01:44.029Z,1001.47
2018-12-04T06:02:44.021Z,1001.43
2018-12-04T06:03:44.004Z,1001.46
2018-12-04T06:04:44.001Z,1001.50
2018-12-04T06:05:44.010Z,1001.46
2018-12-04T06:06:43.976Z,1001.50
2018-12-04T06:07:43.964Z,1001.50
2018-12-04T06:08:43.993Z,1001.53
2018-12-04T06:09:43.948Z,1001.58
2018-12-04T06:10:43.936Z,1001.65
2018-12-04T06:11:43.963Z,1001.66
2018-12-04T06:12:43.908Z,1001.67
2018-12-04T06:13:43.908Z,1001.73
2018-12-04T06:14:43.888Z,1001.73
2018-12-04T06:15:43.876Z,1001.70
2018-12-04T06:16:43.876Z,1001.79
2018-12-04T06:17:43.852Z,1001.82
2018-12-04T06:18:43.892Z,1001.86
2018-12-04T06:19:43.832Z,1001.90
2018-12-04T06:20:43.830Z,1001.90
2018-12-04T06:21:43.841Z,1001.97
2018-12-04T06:22:43.804Z,1002.02
2018-12-04T06:23:43.787Z,1002.09
2018-12-04T06:24:43.855Z,1002.06
2018-12-04T06:25:43.769Z,1002.14
2018-12-04T06:26:43.791Z,1002.11
2018-12-04T06:27:43.772Z,1002.17
2018-12-04T06:28:43.733Z,1002.17
2018-12-04T06:29:43.788Z,1002.21
2018-12-04T06:30:43.763Z,1002.25
2018-12-04T06:31:43.699Z,1002.27
2018-12-04T06:32:43.711Z,1002.33
2018-12-04T06:33:43.692Z,1002.37
2018-12-04T06:34:43.663Z,1002.35
2018-12-04T06:35:43.692Z,1002.41
2018-12-04T06:36:43.647Z,1002.38
2018-12-04T06:37:43.636Z,1002.42
2018-12-04T06:38:43.625Z,1002.43
2018-12-04T06:39:43.627Z,1002.47
2018-12-04T06:40:43.596Z,1002.45
2018-12-04T06:41:43.588Z,1002.50
2018-12-04T06:42:43.620Z,1002.50
2018-12-04T06:43:43.585Z,1002.55
2018-12-04T06:44:46.713Z,1002.56
2018-12-04T06:45:43.568Z,1002.58
2018-12-04T06:46:43.536Z,1002.59
2018-12-04T06:47:43.524Z,1002.63
2018-12-04T06:48:43.520Z,1002.62
2018-12-04T06:49:43.528Z,1002.68
2018-12-04T06:50:43.507Z,1002.69
2018-12-04T06:51:43.475Z,1002.73
2018-12-04T06:52:43.472Z,1002.78
2018-12-04T06:53:43.456Z,1002.77
2018-12-04T06:54:43.448Z,1002.80
2018-12-04T06:55:43.452Z,1002.86
2018-12-04T06:56:43.424Z,1002.87
2018-12-04T06:57:43.416Z,1002.93
2018-12-04T06:58:43.439Z,1002.98
2018-12-04T06:59:43.403Z,1002.99
2018-12-04T07:00:43.407Z,1003.00
2018-12-04T07:01:43.372Z,1003.07
2018-12-04T07:02:43.356Z,1003.06
2018-12-04T07:03:43.343Z,1003.06
2018-12-04T07:04:43.340Z,1003.07
2018-12-04T07:05:43.328Z,1003.12
2018-12-04T07:06:43.332Z,1003.16
2018-12-04T07:07:43.364Z,1003.11
2018-12-04T07:08:43.292Z,1003.18
2018-12-04T07:09:43.284Z,1003.23
2018-12-04T07:10:43.339Z,1003.22
2018-12-04T07:11:43.270Z,1003.27
2018-12-04T07:12:43.248Z,1003.25
2018-12-04T07:13:43.240Z,1003.31
2018-12-04T07:14:43.232Z,1003.34
2018-12-04T07:15:43.216Z,1003.37
2018-12-04T07:16:43.238Z,1003.43
2018-12-04T07:17:43.189Z,1003.47
2018-12-04T07:18:43.176Z,1003.46
2018-12-04T07:19:43.169Z,1003.49
2018-12-04T07:20:43.180Z,1003.53
2018-12-04T07:21:43.145Z,1003.59
2018-12-04T07:22:43.151Z,1003.57
2018-12-04T07:23:43.125Z,1003.62
2018-12-04T07:24:43.125Z,1003.61
2018-12-04T07:25:43.107Z,1003.66
2018-12-04T07:26:43.092Z,1003.64
2018-12-04T07:27:43.083Z,1003.66
2018-12-04T07:28:43.095Z,1003.68
2018-12-04T07:29:43.060Z,1003.70
2018-12-04T07:30:43.083Z,1003.74
2018-12-04T07:31:43.070Z,1003.78
2018-12-04T07:32:43.027Z,1003.86
2018-12-04T07:33:43.015Z,1003.87
2018-12-04T07:34:43.029Z,1003.83
2018-12-04T07:35:42.994Z,1003.93
2018-12-04T07:36:42.988Z,1003.98
2018-12-04T07:37:42.972Z,1003.98
2018-12-04T07:38:42.995Z,1004.00
2018-12-04T07:39:42.951Z,1004.01
2018-12-04T07:40:43.529Z,1004.06
2018-12-04T07:41:42.924Z,1004.08
2018-12-04T07:42:42.947Z,1004.09
2018-12-04T07:43:42.903Z,1004.09
2018-12-04T07:44:42.888Z,1004.08
2018-12-04T07:45:42.935Z,1004.11
2018-12-04T07:46:42.868Z,1004.11
2018-12-04T07:47:42.859Z,1004.14
2018-12-04T07:48:42.843Z,1004.18
2018-12-04T07:49:42.840Z,1004.21
2018-12-04T07:50:42.835Z,1004.21
2018-12-04T07:51:42.815Z,1004.22
2018-12-04T07:52:42.799Z,1004.21
2018-12-04T07:53:42.794Z,1004.25
2018-12-04T07:54:42.786Z,1004.23
2018-12-04T07:55:42.792Z,1004.21
2018-12-04T07:56:42.788Z,1004.33
2018-12-04T07:57:42.748Z,1004.32
2018-12-04T07:58:42.736Z,1004.32
2018-12-04T07:59:42.735Z,1004.31
2018-12-04T08:00:42.719Z,1004.34
2018-12-04T08:01:42.731Z,1004.36
2018-12-04T08:02:42.703Z,1004.40
2018-12-04T08:03:42.692Z,1004.44
2018-12-04T08:04:42.683Z,1004.51
2018-12-04T08:05:42.660Z,1004.54
2018-12-04T08:06:42.651Z,1004.54
2018-12-04T08:07:42.711Z,1004.59
2018-12-04T08:08:42.627Z,1004.60
2018-12-04T08:09:42.615Z,1004.60
2018-12-04T08:10:42.611Z,1004.67
2018-12-04T08:11:42.591Z,1004.63
2018-12-04T08:12:42.595Z,1004.63
2018-12-04T08:13:42.571Z,1004.65
2018-12-04T08:14:42.556Z,1004.70
2018-12-04T08:15:42.578Z,1004.68
2018-12-04T08:16:42.531Z,1004.75
2018-12-04T08:17:43.064Z,1004.79
2018-12-04T08:18:42.539Z,1004.81
2018-12-04T08:19:42.506Z,1004.85
2018-12-04T08:20:42.498Z,1004.87
2018-12-04T08:21:42.487Z,1004.84
2018-12-04T08:22:42.474Z,1004.94
2018-12-04T08:23:42.459Z,1004.93
2018-12-04T08:24:42.487Z,1004.92
2018-12-04T08:25:42.438Z,1004.94
2018-12-04T08:26:42.422Z,1004.92
2018-12-04T08:27:42.414Z,1005.00
2018-12-04T08:28:42.406Z,1005.03
2018-12-04T08:29:42.406Z,1005.05
2018-12-04T08:30:42.382Z,1005.08
2018-12-04T08:31:42.375Z,1005.10
2018-12-04T08:32:42.363Z,1005.12
2018-12-04T08:33:42.350Z,1005.15
2018-12-04T08:34:42.398Z,1005.14
2018-12-04T08:35:42.358Z,1005.18
2018-12-04T08:36:42.318Z,1005.20
2018-12-04T08:37:42.302Z,1005.19
2018-12-04T08:38:42.335Z,1005.25
2018-12-04T08:39:42.278Z,1005.29
2018-12-04T08:40:42.266Z,1005.25
2018-12-04T08:41:42.310Z,1005.29
2018-12-04T08:42:42.247Z,1005.32
2018-12-04T08:43:42.243Z,1005.34
2018-12-04T08:44:42.235Z,1005.35
2018-12-04T08:45:42.211Z,1005.30
2018-12-04T08:46:42.218Z,1005.37
2018-12-04T08:47:42.222Z,1005.35
2018-12-04T08:48:42.187Z,1005.39
2018-12-04T08:49:42.174Z,1005.42
2018-12-04T08:50:42.159Z,1005.41
2018-12-04T08:51:42.148Z,1005.43
2018-12-04T08:52:42.159Z,1005.51
2018-12-04T08:53:42.138Z,1005.48
2018-12-04T08:54:42.114Z,1005.49
2018-12-04T08:55:42.107Z,1005.49
2018-12-04T08:56:42.124Z,1005.53
2018-12-04T08:57:42.094Z,1005.59
2018-12-04T08:58:42.074Z,1005.57
2018-12-04T08:59:42.066Z,1005.66
2018-12-04T09:00:42.060Z,1005.68
2018-12-04T09:01:42.038Z,1005.69
2018-12-04T09:02:42.022Z,1005.76
2018-12-04T09:03:42.030Z,1005.74
2018-12-04T09:04:42.051Z,1005.81
2018-12-04T09:05:41.990Z,1005.80
2018-12-04T09:06:41.998Z,1005.78
2018-12-04T09:07:41.998Z,1005.83
2018-12-04T09:08:41.994Z,1005.86
2018-12-04T09:09:41.975Z,1005.87
2018-12-04T09:10:41.934Z,1005.90
2018-12-04T09:11:41.931Z,1005.89
2018-12-04T09:12:41.914Z,1005.89
2018-12-04T09:13:41.907Z,1005.97
2018-12-04T09:14:41.942Z,1005.97
2018-12-04T09:15:41.903Z,1005.99
2018-12-04T09:16:41.875Z,1006.03
2018-12-04T09:17:41.867Z,1006.06
2018-12-04T09:18:41.848Z,1006.10
2018-12-04T09:19:41.914Z,1006.09
2018-12-04T09:20:41.865Z,1006.17
2018-12-04T09:21:41.832Z,1006.17
2018-12-04T09:22:41.847Z,1006.20
2018-12-04T09:23:41.836Z,1006.23
2018-12-04T09:24:41.785Z,1006.29
2018-12-04T09:25:41.832Z,1006.30
2018-12-04T09:26:41.775Z,1006.33
2018-12-04T09:27:41.767Z,1006.39
2018-12-04T09:28:41.734Z,1006.46
2018-12-04T09:29:41.788Z,1006.41
2018-12-04T09:30:41.747Z,1006.47
2018-12-04T09:31:41.702Z,1006.48
2018-12-04T09:32:41.710Z,1006.45
2018-12-04T09:33:41.730Z,1006.44
2018-12-04T09:34:41.678Z,1006.48
2018-12-04T09:35:41.658Z,1006.53
2018-12-04T09:36:41.670Z,1006.52
2018-12-04T09:37:41.693Z,1006.52
2018-12-04T09:38:41.632Z,1006.53
2018-12-04T09:39:41.614Z,1006.56
2018-12-04T09:40:41.606Z,1006.57
2018-12-04T09:41:41.598Z,1006.58
2018-12-04T09:42:41.581Z,1006.60
2018-12-04T09:43:41.594Z,1006.64
2018-12-04T09:44:41.562Z,1006.64
2018-12-04T09:45:41.592Z,1006.64
2018-12-04T09:46:41.537Z,1006.60
2018-12-04T09:47:41.526Z,1006.69
2018-12-04T09:48:41.514Z,1006.68
2018-12-04T09:49:41.518Z,1006.74
2018-12-04T09:50:41.498Z,1006.78
2018-12-04T09:51:41.490Z,1006.85
2018-12-04T09:52:41.474Z,1006.88
2018-12-04T09:53:41.466Z,1006.83
2018-12-04T09:54:41.478Z,1006.82
2018-12-04T09:55:41.438Z,1006.89
2018-12-04T09:56:41.431Z,1006.88
2018-12-04T09:57:41.422Z,1006.98
2018-12-04T09:58:41.398Z,1006.95
2018-12-04T09:59:41.398Z,1006.99
2018-12-04T10:00:41.390Z,1007.02
2018-12-04T10:01:41.370Z,1006.99
2018-12-04T10:02:41.374Z,1006.98
2018-12-04T10:03:41.362Z,1006.99
2018-12-04T10:04:41.344Z,1006.97
2018-12-04T10:05:41.329Z,1007.01
2018-12-04T10:06:41.340Z,1007.04
2018-12-04T10:07:41.303Z,1007.05
2018-12-04T10:08:41.438Z,1007.04
2018-12-04T10:09:41.281Z,1007.13
2018-12-04T10:10:41.269Z,1007.12
2018-12-04T10:11:41.258Z,1007.08
2018-12-04T10:12:41.350Z,1007.13
2018-12-04T10:13:41.241Z,1007.11
2018-12-04T10:14:41.221Z,1007.20
2018-12-04T10:15:41.213Z,1007.09
2018-12-04T10:16:41.385Z,1007.12
2018-12-04T10:17:41.195Z,1007.12
2018-12-04T10:18:41.348Z,1007.12
2018-12-04T10:19:41.165Z,1007.09
2018-12-04T10:20:41.181Z,1007.16
2018-12-04T10:21:41.149Z,1007.14
2018-12-04T10:22:41.133Z,1007.10
2018-12-04T10:23:41.121Z,1007.19
2018-12-04T10:24:41.121Z,1007.21
2018-12-04T10:25:41.101Z,1007.19
2018-12-04T10:26:41.094Z,1007.26
2018-12-04T10:27:41.085Z,1007.31
2018-12-04T10:28:41.101Z,1007.30
2018-12-04T10:29:41.078Z,1007.34
2018-12-04T10:30:41.041Z,1007.42
2018-12-04T10:31:41.034Z,1007.31
2018-12-04T10:32:41.045Z,1007.35
2018-12-04T10:33:41.010Z,1007.34
2018-12-04T10:34:41.003Z,1007.34
2018-12-04T10:35:41.005Z,1007.36
2018-12-04T10:36:41.001Z,1007.38
2018-12-04T10:37:40.970Z,1007.35
2018-12-04T10:38:40.962Z,1007.37
2018-12-04T10:39:40.950Z,1007.44
2018-12-04T10:40:40.931Z,1007.39
2018-12-04T10:41:40.982Z,1007.39
2018-12-04T10:42:40.913Z,1007.44
2018-12-04T10:43:40.904Z,1007.45
2018-12-04T10:44:40.897Z,1007.48
2018-12-04T10:45:40.882Z,1007.48
2018-12-04T10:46:40.886Z,1007.50
2018-12-04T10:47:40.870Z,1007.52
2018-12-04T10:48:40.854Z,1007.49
2018-12-04T10:49:40.926Z,1007.49
2018-12-04T10:50:40.826Z,1007.54
2018-12-04T10:51:40.814Z,1007.50
2018-12-04T10:52:40.960Z,1007.53
2018-12-04T10:53:40.804Z,1007.50
2018-12-04T10:54:40.772Z,1007.52
2018-12-04T10:55:40.765Z,1007.51
2018-12-04T10:56:40.811Z,1007.47
2018-12-04T10:57:40.741Z,1007.55
2018-12-04T10:58:40.752Z,1007.54
2018-12-04T10:59:40.720Z,1007.58
2018-12-04T11:00:40.708Z,1007.59
2018-12-04T11:01:40.800Z,1007.57
2018-12-04T11:02:40.690Z,1007.58
2018-12-04T11:03:40.677Z,1007.51
2018-12-04T11:04:40.679Z,1007.52
2018-12-04T11:05:40.653Z,1007.58
2018-12-04T11:06:40.644Z,1007.58
2018-12-04T11:07:40.656Z,1007.59
2018-12-04T11:08:40.622Z,1007.65
2018-12-04T11:09:40.637Z,1007.69
2018-12-04T11:10:40.596Z,1007.64
2018-12-04T11:11:40.593Z,1007.61
2018-12-04T11:12:40.573Z,1007.71
2018-12-04T11:13:40.574Z,1007.70
2018-12-04T11:14:40.588Z,1007.72
2018-12-04T11:15:40.556Z,1007.73
2018-12-04T11:16:40.543Z,1007.76
2018-12-04T11:17:40.521Z,1007.78
2018-12-04T11:18:40.510Z,1007.81
2018-12-04T11:19:40.497Z,1007.81
2018-12-04T11:20:40.485Z,1007.83
2018-12-04T11:21:40.514Z,1007.87
2018-12-04T11:22:40.473Z,1007.83
2018-12-04T11:23:40.463Z,1007.78
2018-12-04T11:24:40.448Z,1007.83
2018-12-04T11:25:40.436Z,1007.78
2018-12-04T11:26:40.470Z,1007.86
2018-12-04T11:27:40.420Z,1007.84
2018-12-04T11:28:40.396Z,1007.87
2018-12-04T11:29:40.452Z,1007.87
2018-12-04T11:30:40.373Z,1007.81
2018-12-04T11:31:40.377Z,1007.91
2018-12-04T11:32:40.370Z,1007.85
2018-12-04T11:33:40.344Z,1007.86
2018-12-04T11:34:40.329Z,1007.94
2018-12-04T11:35:55.172Z,1007.92
2018-12-04T11:36:40.385Z,1007.87
2018-12-04T11:37:40.293Z,1007.94
2018-12-04T11:38:40.297Z,1007.92
2018-12-04T11:39:40.330Z,1007.90
2018-12-04T11:40:40.265Z,1007.95
2018-12-04T11:41:40.259Z,1007.97
2018-12-04T11:42:40.257Z,1008.05
2018-12-04T11:43:40.246Z,1008.02
2018-12-04T11:44:40.236Z,1008.03
2018-12-04T11:45:40.210Z,1008.09
2018-12-04T11:46:40.197Z,1008.14
2018-12-04T11:47:40.185Z,1008.13
2018-12-04T11:48:40.176Z,1008.16
2018-12-04T11:49:40.188Z,1008.17
2018-12-04T11:50:40.365Z,1008.18
2018-12-04T11:51:40.144Z,1008.21
2018-12-04T11:52:40.127Z,1008.22
2018-12-04T11:53:40.170Z,1008.23
2018-12-04T11:54:40.109Z,1008.30
2018-12-04T11:55:40.967Z,1008.23
2018-12-04T11:56:40.092Z,1008.27
2018-12-04T11:57:40.076Z,1008.22
2018-12-04T11:58:40.077Z,1008.28
2018-12-04T11:59:40.121Z,1008.26
2018-12-04T12:00:40.041Z,1008.30
2018-12-04T12:01:40.032Z,1008.29
2018-12-04T12:03:31.397Z,1008.25
2018-12-04T12:04:31.399Z,1008.28
2018-12-04T12:05:31.373Z,1008.32
2018-12-04T12:06:31.389Z,1008.29
2018-12-04T12:07:31.349Z,1008.34
2018-12-04T12:08:31.341Z,1008.32
2018-12-04T12:09:31.329Z,1008.35
2018-12-04T12:10:31.337Z,1008.35
2018-12-04T12:11:31.304Z,1008.36
2018-12-04T12:12:31.305Z,1008.40
2018-12-04T12:13:31.425Z,1008.43
2018-12-04T12:14:31.273Z,1008.42
2018-12-04T12:15:31.261Z,1008.37